sensor_id;sensor_type;location;lat;lon;timestamp;P1;durP1;ratioP1;P2;durP2;ratioP2
23718;SDS011;43322;52.230;5.702;2022-08-01T00:00:17;5.40;;;4.90;;
23718;SDS011;43322;52.230;5.702;2022-08-01T00:02:44;5.15;;;4.65;;
23718;SDS011;43322;52.230;5.702;2022-08-01T00:05:11;5.68;;;5.18;;
23718;SDS011;43322;52.230;5.702;2022-08-01T00:07:39;5.38;;;4.88;;
23718;SDS011;43322;52.230;5.702;2022-08-01T00:10:08;5.80;;;5.30;;
23718;SDS011;43322;52.230;5.702;2022-08-01T00:12:38;6.60;;;5.07;;
23718;SDS011;43322;52.230;5.702;2022-08-01T00:15:07;5.55;;;5.10;;
23718;SDS011;43322;52.230;5.702;2022-08-01T00:17:35;4.82;;;4.53;;
23718;SDS011;43322;52.230;5.702;2022-08-01T00:20:03;7.05;;;5.13;;
23718;SDS011;43322;52.230;5.702;2022-08-01T00:22:32;5.90;;;5.45;;
23718;SDS011;43322;52.230;5.702;2022-08-01T00:25:01;6.10;;;5.60;;
23718;SDS011;43322;52.230;5.702;2022-08-01T00:27:29;6.88;;;6.28;;
23718;SDS011;43322;52.230;5.702;2022-08-01T00:29:56;6.10;;;5.65;;
23718;SDS011;43322;52.230;5.702;2022-08-01T00:32:23;6.13;;;5.63;;
23718;SDS011;43322;52.230;5.702;2022-08-01T00:34:50;6.63;;;6.05;;
23718;SDS011;43322;52.230;5.702;2022-08-01T00:37:17;6.63;;;5.90;;
23718;SDS011;43322;52.230;5.702;2022-08-01T00:39:44;6.75;;;6.13;;
23718;SDS011;43322;52.230;5.702;2022-08-01T00:42:13;4.95;;;4.65;;
23718;SDS011;43322;52.230;5.702;2022-08-01T00:44:40;5.55;;;5.15;;
23718;SDS011;43322;52.230;5.702;2022-08-01T00:47:07;6.65;;;6.03;;
23718;SDS011;43322;52.230;5.702;2022-08-01T00:49:34;6.88;;;5.90;;
23718;SDS011;43322;52.230;5.702;2022-08-01T00:52:01;6.05;;;5.50;;
23718;SDS011;43322;52.230;5.702;2022-08-01T00:54:30;6.32;;;5.72;;
23718;SDS011;43322;52.230;5.702;2022-08-01T00:56:57;6.43;;;5.93;;
23718;SDS011;43322;52.230;5.702;2022-08-01T00:59:26;6.20;;;5.65;;
23718;SDS011;43322;52.230;5.702;2022-08-01T01:01:52;6.82;;;6.05;;
23718;SDS011;43322;52.230;5.702;2022-08-01T01:04:19;6.63;;;6.10;;
23718;SDS011;43322;52.230;5.702;2022-08-01T01:06:48;6.38;;;5.85;;
23718;SDS011;43322;52.230;5.702;2022-08-01T01:09:24;6.40;;;5.80;;
23718;SDS011;43322;52.230;5.702;2022-08-01T01:12:01;7.72;;;6.93;;
23718;SDS011;43322;52.230;5.702;2022-08-01T01:14:37;7.30;;;6.60;;
23718;SDS011;43322;52.230;5.702;2022-08-01T01:17:11;6.97;;;6.28;;
23718;SDS011;43322;52.230;5.702;2022-08-01T01:19:41;6.13;;;5.63;;
23718;SDS011;43322;52.230;5.702;2022-08-01T01:22:22;5.93;;;5.43;;
23718;SDS011;43322;52.230;5.702;2022-08-01T01:24:58;5.40;;;5.00;;
23718;SDS011;43322;52.230;5.702;2022-08-01T01:27:36;4.97;;;4.68;;
23718;SDS011;43322;52.230;5.702;2022-08-01T01:30:12;4.88;;;4.57;;
23718;SDS011;43322;52.230;5.702;2022-08-01T01:32:42;5.47;;;5.00;;
23718;SDS011;43322;52.230;5.702;2022-08-01T01:35:13;5.05;;;4.65;;
23718;SDS011;43322;52.230;5.702;2022-08-01T01:37:46;4.82;;;4.45;;
23718;SDS011;43322;52.230;5.702;2022-08-01T01:40:15;4.47;;;4.18;;
23718;SDS011;43322;52.230;5.702;2022-08-01T01:42:45;3.63;;;3.42;;
23718;SDS011;43322;52.230;5.702;2022-08-01T01:45:14;3.70;;;3.40;;
23718;SDS011;43322;52.230;5.702;2022-08-01T01:47:42;3.60;;;3.40;;
23718;SDS011;43322;52.230;5.702;2022-08-01T01:50:11;4.03;;;3.83;;
23718;SDS011;43322;52.230;5.702;2022-08-01T01:52:39;3.30;;;3.10;;
23718;SDS011;43322;52.230;5.702;2022-08-01T01:55:08;3.50;;;3.15;;
23718;SDS011;43322;52.230;5.702;2022-08-01T01:57:36;3.20;;;3.00;;
23718;SDS011;43322;52.230;5.702;2022-08-01T02:00:06;3.42;;;3.13;;
23718;SDS011;43322;52.230;5.702;2022-08-01T02:02:35;3.08;;;2.90;;
23718;SDS011;43322;52.230;5.702;2022-08-01T02:05:03;4.07;;;3.70;;
23718;SDS011;43322;52.230;5.702;2022-08-01T02:07:31;3.50;;;3.30;;
23718;SDS011;43322;52.230;5.702;2022-08-01T02:09:59;3.50;;;3.22;;
23718;SDS011;43322;52.230;5.702;2022-08-01T02:12:27;3.42;;;3.20;;
23718;SDS011;43322;52.230;5.702;2022-08-01T02:14:58;3.50;;;3.30;;
23718;SDS011;43322;52.230;5.702;2022-08-01T02:17:28;3.72;;;3.53;;
23718;SDS011;43322;52.230;5.702;2022-08-01T02:19:58;3.95;;;3.58;;
23718;SDS011;43322;52.230;5.702;2022-08-01T02:22:26;3.58;;;3.40;;
23718;SDS011;43322;52.230;5.702;2022-08-01T02:24:59;4.20;;;3.90;;
23718;SDS011;43322;52.230;5.702;2022-08-01T02:27:30;4.75;;;4.45;;
23718;SDS011;43322;52.230;5.702;2022-08-01T02:30:04;3.80;;;3.60;;
23718;SDS011;43322;52.230;5.702;2022-08-01T02:32:34;3.70;;;3.40;;
23718;SDS011;43322;52.230;5.702;2022-08-01T02:35:06;3.63;;;3.47;;
23718;SDS011;43322;52.230;5.702;2022-08-01T02:37:38;3.97;;;3.67;;
23718;SDS011;43322;52.230;5.702;2022-08-01T02:40:07;4.20;;;3.90;;
23718;SDS011;43322;52.230;5.702;2022-08-01T02:42:35;3.70;;;3.50;;
23718;SDS011;43322;52.230;5.702;2022-08-01T02:45:05;3.88;;;3.67;;
23718;SDS011;43322;52.230;5.702;2022-08-01T02:47:34;3.70;;;3.40;;
23718;SDS011;43322;52.230;5.702;2022-08-01T02:50:06;4.30;;;4.00;;
23718;SDS011;43322;52.230;5.702;2022-08-01T02:52:36;3.83;;;3.50;;
23718;SDS011;43322;52.230;5.702;2022-08-01T02:55:05;4.00;;;3.72;;
23718;SDS011;43322;52.230;5.702;2022-08-01T02:57:34;3.90;;;3.70;;
23718;SDS011;43322;52.230;5.702;2022-08-01T03:00:03;5.28;;;3.97;;
23718;SDS011;43322;52.230;5.702;2022-08-01T03:02:31;4.50;;;4.10;;
23718;SDS011;43322;52.230;5.702;2022-08-01T03:05:00;3.88;;;3.67;;
23718;SDS011;43322;52.230;5.702;2022-08-01T03:07:29;3.67;;;3.47;;
23718;SDS011;43322;52.230;5.702;2022-08-01T03:09:58;3.80;;;3.60;;
23718;SDS011;43322;52.230;5.702;2022-08-01T03:12:26;4.60;;;4.20;;
23718;SDS011;43322;52.230;5.702;2022-08-01T03:14:57;4.10;;;3.83;;
23718;SDS011;43322;52.230;5.702;2022-08-01T03:17:27;4.18;;;3.88;;
23718;SDS011;43322;52.230;5.702;2022-08-01T03:19:55;3.83;;;3.55;;
23718;SDS011;43322;52.230;5.702;2022-08-01T03:22:25;4.38;;;4.15;;
23718;SDS011;43322;52.230;5.702;2022-08-01T03:24:55;4.60;;;4.30;;
23718;SDS011;43322;52.230;5.702;2022-08-01T03:27:24;4.20;;;3.95;;
23718;SDS011;43322;52.230;5.702;2022-08-01T03:29:51;4.68;;;4.38;;
23718;SDS011;43322;52.230;5.702;2022-08-01T03:32:22;4.43;;;4.15;;
23718;SDS011;43322;52.230;5.702;2022-08-01T03:34:50;4.50;;;4.20;;
23718;SDS011;43322;52.230;5.702;2022-08-01T03:37:20;4.78;;;4.47;;
23718;SDS011;43322;52.230;5.702;2022-08-01T03:39:54;4.40;;;4.20;;
23718;SDS011;43322;52.230;5.702;2022-08-01T03:42:26;4.75;;;4.43;;
23718;SDS011;43322;52.230;5.702;2022-08-01T03:45:11;4.70;;;4.30;;
23718;SDS011;43322;52.230;5.702;2022-08-01T03:47:45;4.50;;;4.30;;
23718;SDS011;43322;52.230;5.702;2022-08-01T03:50:15;5.10;;;4.57;;
23718;SDS011;43322;52.230;5.702;2022-08-01T03:52:43;5.13;;;4.68;;
23718;SDS011;43322;52.230;5.702;2022-08-01T03:55:14;5.30;;;5.00;;
23718;SDS011;43322;52.230;5.702;2022-08-01T03:57:43;4.95;;;4.65;;
23718;SDS011;43322;52.230;5.702;2022-08-01T04:00:12;4.95;;;4.65;;
23718;SDS011;43322;52.230;5.702;2022-08-01T04:02:43;6.03;;;5.47;;
23718;SDS011;43322;52.230;5.702;2022-08-01T04:05:11;8.82;;;6.72;;
23718;SDS011;43322;52.230;5.702;2022-08-01T04:07:38;6.07;;;5.47;;
23718;SDS011;43322;52.230;5.702;2022-08-01T04:10:07;5.47;;;5.07;;
23718;SDS011;43322;52.230;5.702;2022-08-01T04:12:36;5.28;;;4.88;;
23718;SDS011;43322;52.230;5.702;2022-08-01T04:15:03;5.63;;;5.18;;
23718;SDS011;43322;52.230;5.702;2022-08-01T04:17:31;5.57;;;5.18;;
23718;SDS011;43322;52.230;5.702;2022-08-01T04:19:58;5.88;;;5.30;;
23718;SDS011;43322;52.230;5.702;2022-08-01T04:22:26;5.78;;;5.03;;
23718;SDS011;43322;52.230;5.702;2022-08-01T04:24:53;3.03;;;2.80;;
23718;SDS011;43322;52.230;5.702;2022-08-01T04:27:23;3.30;;;3.05;;
23718;SDS011;43322;52.230;5.702;2022-08-01T04:29:56;2.25;;;2.15;;
23718;SDS011;43322;52.230;5.702;2022-08-01T04:32:25;2.17;;;1.88;;
23718;SDS011;43322;52.230;5.702;2022-08-01T04:34:56;1.65;;;1.60;;
23718;SDS011;43322;52.230;5.702;2022-08-01T04:37:25;2.30;;;2.10;;
23718;SDS011;43322;52.230;5.702;2022-08-01T04:39:55;2.25;;;1.73;;
23718;SDS011;43322;52.230;5.702;2022-08-01T04:42:24;1.80;;;1.70;;
23718;SDS011;43322;52.230;5.702;2022-08-01T04:44:52;1.80;;;1.70;;
23718;SDS011;43322;52.230;5.702;2022-08-01T04:47:20;1.50;;;1.50;;
23718;SDS011;43322;52.230;5.702;2022-08-01T04:49:48;1.80;;;1.73;;
23718;SDS011;43322;52.230;5.702;2022-08-01T04:52:16;1.95;;;1.85;;
23718;SDS011;43322;52.230;5.702;2022-08-01T04:54:43;2.30;;;1.83;;
23718;SDS011;43322;52.230;5.702;2022-08-01T04:57:11;2.75;;;2.22;;
23718;SDS011;43322;52.230;5.702;2022-08-01T04:59:38;2.00;;;1.90;;
23718;SDS011;43322;52.230;5.702;2022-08-01T05:02:11;1.83;;;1.75;;
23718;SDS011;43322;52.230;5.702;2022-08-01T05:04:40;1.90;;;1.80;;
23718;SDS011;43322;52.230;5.702;2022-08-01T05:07:07;2.38;;;2.20;;
23718;SDS011;43322;52.230;5.702;2022-08-01T05:09:35;2.10;;;2.00;;
23718;SDS011;43322;52.230;5.702;2022-08-01T05:12:04;2.20;;;2.10;;
23718;SDS011;43322;52.230;5.702;2022-08-01T05:14:31;2.15;;;2.05;;
23718;SDS011;43322;52.230;5.702;2022-08-01T05:16:59;2.20;;;2.10;;
23718;SDS011;43322;52.230;5.702;2022-08-01T05:19:28;2.17;;;2.08;;
23718;SDS011;43322;52.230;5.702;2022-08-01T05:21:56;2.20;;;2.10;;
23718;SDS011;43322;52.230;5.702;2022-08-01T05:24:23;2.30;;;2.20;;
23718;SDS011;43322;52.230;5.702;2022-08-01T05:26:50;2.75;;;2.55;;
23718;SDS011;43322;52.230;5.702;2022-08-01T05:29:17;2.25;;;2.15;;
23718;SDS011;43322;52.230;5.702;2022-08-01T05:31:43;2.80;;;2.70;;
23718;SDS011;43322;52.230;5.702;2022-08-01T05:34:10;2.58;;;2.47;;
23718;SDS011;43322;52.230;5.702;2022-08-01T05:36:37;2.72;;;2.53;;
23718;SDS011;43322;52.230;5.702;2022-08-01T05:39:05;2.65;;;2.55;;
23718;SDS011;43322;52.230;5.702;2022-08-01T05:41:32;2.72;;;2.58;;
23718;SDS011;43322;52.230;5.702;2022-08-01T05:43:59;2.95;;;2.75;;
23718;SDS011;43322;52.230;5.702;2022-08-01T05:46:26;3.00;;;2.80;;
23718;SDS011;43322;52.230;5.702;2022-08-01T05:48:53;3.22;;;3.03;;
23718;SDS011;43322;52.230;5.702;2022-08-01T05:51:20;3.33;;;3.13;;
23718;SDS011;43322;52.230;5.702;2022-08-01T05:53:46;3.00;;;2.90;;
23718;SDS011;43322;52.230;5.702;2022-08-01T05:56:14;3.58;;;3.35;;
23718;SDS011;43322;52.230;5.702;2022-08-01T05:58:41;3.45;;;2.85;;
23718;SDS011;43322;52.230;5.702;2022-08-01T06:01:08;3.15;;;2.88;;
23718;SDS011;43322;52.230;5.702;2022-08-01T06:03:35;3.25;;;3.08;;
23718;SDS011;43322;52.230;5.702;2022-08-01T06:06:02;3.33;;;3.03;;
23718;SDS011;43322;52.230;5.702;2022-08-01T06:08:30;3.22;;;3.03;;
23718;SDS011;43322;52.230;5.702;2022-08-01T06:10:57;3.03;;;2.90;;
23718;SDS011;43322;52.230;5.702;2022-08-01T06:13:26;3.85;;;3.60;;
23718;SDS011;43322;52.230;5.702;2022-08-01T06:15:53;4.07;;;3.67;;
23718;SDS011;43322;52.230;5.702;2022-08-01T06:18:20;4.00;;;3.50;;
23718;SDS011;43322;52.230;5.702;2022-08-01T06:20:48;5.43;;;2.95;;
23718;SDS011;43322;52.230;5.702;2022-08-01T06:23:14;4.20;;;2.95;;
23718;SDS011;43322;52.230;5.702;2022-08-01T06:25:42;3.65;;;3.40;;
23718;SDS011;43322;52.230;5.702;2022-08-01T06:28:09;3.38;;;3.13;;
23718;SDS011;43322;52.230;5.702;2022-08-01T06:30:37;3.15;;;2.95;;
23718;SDS011;43322;52.230;5.702;2022-08-01T06:33:04;3.03;;;2.83;;
23718;SDS011;43322;52.230;5.702;2022-08-01T06:35:31;3.47;;;3.22;;
23718;SDS011;43322;52.230;5.702;2022-08-01T06:37:58;3.15;;;2.70;;
23718;SDS011;43322;52.230;5.702;2022-08-01T06:40:25;2.95;;;2.75;;
23718;SDS011;43322;52.230;5.702;2022-08-01T06:42:52;3.15;;;2.70;;
23718;SDS011;43322;52.230;5.702;2022-08-01T06:45:19;2.70;;;2.50;;
23718;SDS011;43322;52.230;5.702;2022-08-01T06:47:49;2.20;;;2.00;;
23718;SDS011;43322;52.230;5.702;2022-08-01T06:50:15;2.58;;;2.38;;
23718;SDS011;43322;52.230;5.702;2022-08-01T06:52:43;2.40;;;2.22;;
23718;SDS011;43322;52.230;5.702;2022-08-01T06:55:10;2.92;;;2.80;;
23718;SDS011;43322;52.230;5.702;2022-08-01T06:57:44;2.38;;;2.17;;
23718;SDS011;43322;52.230;5.702;2022-08-01T07:00:12;2.40;;;2.30;;
23718;SDS011;43322;52.230;5.702;2022-08-01T07:02:41;2.72;;;2.60;;
23718;SDS011;43322;52.230;5.702;2022-08-01T07:05:09;2.78;;;2.58;;
23718;SDS011;43322;52.230;5.702;2022-08-01T07:07:36;3.03;;;2.70;;
23718;SDS011;43322;52.230;5.702;2022-08-01T07:10:04;2.92;;;2.72;;
23718;SDS011;43322;52.230;5.702;2022-08-01T07:12:31;6.97;;;3.38;;
23718;SDS011;43322;52.230;5.702;2022-08-01T07:14:58;4.38;;;2.92;;
23718;SDS011;43322;52.230;5.702;2022-08-01T07:17:26;3.35;;;2.65;;
23718;SDS011;43322;52.230;5.702;2022-08-01T07:19:53;3.15;;;2.47;;
23718;SDS011;43322;52.230;5.702;2022-08-01T07:22:21;3.25;;;2.78;;
23718;SDS011;43322;52.230;5.702;2022-08-01T07:24:48;3.50;;;3.00;;
23718;SDS011;43322;52.230;5.702;2022-08-01T07:27:16;3.22;;;2.92;;
23718;SDS011;43322;52.230;5.702;2022-08-01T07:29:43;6.32;;;3.70;;
23718;SDS011;43322;52.230;5.702;2022-08-01T07:32:09;3.30;;;3.05;;
23718;SDS011;43322;52.230;5.702;2022-08-01T07:34:37;4.47;;;3.03;;
23718;SDS011;43322;52.230;5.702;2022-08-01T07:37:03;4.78;;;3.25;;
23718;SDS011;43322;52.230;5.702;2022-08-01T07:39:32;4.22;;;3.25;;
23718;SDS011;43322;52.230;5.702;2022-08-01T07:41:59;6.40;;;3.70;;
23718;SDS011;43322;52.230;5.702;2022-08-01T07:44:26;6.70;;;3.63;;
23718;SDS011;43322;52.230;5.702;2022-08-01T07:46:53;6.40;;;3.28;;
23718;SDS011;43322;52.230;5.702;2022-08-01T07:49:20;6.43;;;3.45;;
23718;SDS011;43322;52.230;5.702;2022-08-01T07:51:47;11.48;;;4.82;;
23718;SDS011;43322;52.230;5.702;2022-08-01T07:54:14;8.27;;;4.05;;
23718;SDS011;43322;52.230;5.702;2022-08-01T07:56:42;10.27;;;3.92;;
23718;SDS011;43322;52.230;5.702;2022-08-01T07:59:09;9.45;;;3.80;;
23718;SDS011;43322;52.230;5.702;2022-08-01T08:01:36;10.25;;;3.85;;
23718;SDS011;43322;52.230;5.702;2022-08-01T08:04:03;11.27;;;3.97;;
23718;SDS011;43322;52.230;5.702;2022-08-01T08:06:30;6.60;;;4.03;;
23718;SDS011;43322;52.230;5.702;2022-08-01T08:08:57;10.90;;;3.90;;
23718;SDS011;43322;52.230;5.702;2022-08-01T08:11:23;12.30;;;4.00;;
23718;SDS011;43322;52.230;5.702;2022-08-01T08:13:52;11.65;;;4.10;;
23718;SDS011;43322;52.230;5.702;2022-08-01T08:16:19;12.55;;;4.45;;
23718;SDS011;43322;52.230;5.702;2022-08-01T08:18:46;8.43;;;3.88;;
23718;SDS011;43322;52.230;5.702;2022-08-01T08:21:12;7.10;;;3.85;;
23718;SDS011;43322;52.230;5.702;2022-08-01T08:23:39;8.65;;;3.13;;
23718;SDS011;43322;52.230;5.702;2022-08-01T08:26:25;9.25;;;3.75;;
23718;SDS011;43322;52.230;5.702;2022-08-01T08:28:55;7.75;;;3.85;;
23718;SDS011;43322;52.230;5.702;2022-08-01T08:31:22;9.20;;;3.80;;
23718;SDS011;43322;52.230;5.702;2022-08-01T08:33:50;5.68;;;2.97;;
23718;SDS011;43322;52.230;5.702;2022-08-01T08:36:18;7.25;;;3.92;;
23718;SDS011;43322;52.230;5.702;2022-08-01T08:38:45;9.45;;;3.88;;
23718;SDS011;43322;52.230;5.702;2022-08-01T08:41:12;8.73;;;3.42;;
23718;SDS011;43322;52.230;5.702;2022-08-01T08:43:39;7.70;;;2.90;;
23718;SDS011;43322;52.230;5.702;2022-08-01T08:46:08;7.95;;;3.08;;
23718;SDS011;43322;52.230;5.702;2022-08-01T08:48:37;5.38;;;2.63;;
23718;SDS011;43322;52.230;5.702;2022-08-01T08:51:06;4.85;;;2.40;;
23718;SDS011;43322;52.230;5.702;2022-08-01T08:53:35;4.03;;;2.38;;
23718;SDS011;43322;52.230;5.702;2022-08-01T08:56:05;4.85;;;2.45;;
23718;SDS011;43322;52.230;5.702;2022-08-01T08:58:34;4.97;;;2.10;;
23718;SDS011;43322;52.230;5.702;2022-08-01T09:01:04;4.43;;;2.17;;
23718;SDS011;43322;52.230;5.702;2022-08-01T09:03:33;3.90;;;1.80;;
23718;SDS011;43322;52.230;5.702;2022-08-01T09:06:00;3.85;;;2.20;;
23718;SDS011;43322;52.230;5.702;2022-08-01T09:08:27;4.22;;;2.10;;
23718;SDS011;43322;52.230;5.702;2022-08-01T09:10:54;5.32;;;2.50;;
23718;SDS011;43322;52.230;5.702;2022-08-01T09:13:21;6.07;;;2.13;;
23718;SDS011;43322;52.230;5.702;2022-08-01T09:15:48;5.32;;;2.33;;
23718;SDS011;43322;52.230;5.702;2022-08-01T09:18:28;4.50;;;2.13;;
23718;SDS011;43322;52.230;5.702;2022-08-01T09:21:11;6.18;;;2.10;;
23718;SDS011;43322;52.230;5.702;2022-08-01T09:23:42;5.90;;;2.35;;
23718;SDS011;43322;52.230;5.702;2022-08-01T09:26:11;5.93;;;2.42;;
23718;SDS011;43322;52.230;5.702;2022-08-01T09:28:40;6.15;;;2.47;;
23718;SDS011;43322;52.230;5.702;2022-08-01T09:31:08;4.15;;;2.22;;
23718;SDS011;43322;52.230;5.702;2022-08-01T09:33:49;3.45;;;2.05;;
23718;SDS011;43322;52.230;5.702;2022-08-01T09:36:20;4.85;;;1.95;;
23718;SDS011;43322;52.230;5.702;2022-08-01T09:38:48;4.40;;;2.20;;
23718;SDS011;43322;52.230;5.702;2022-08-01T09:41:15;4.57;;;2.25;;
23718;SDS011;43322;52.230;5.702;2022-08-01T09:43:47;7.93;;;2.30;;
23718;SDS011;43322;52.230;5.702;2022-08-01T09:46:16;4.22;;;2.10;;
23718;SDS011;43322;52.230;5.702;2022-08-01T09:48:56;5.65;;;2.20;;
23718;SDS011;43322;52.230;5.702;2022-08-01T09:51:29;3.25;;;1.98;;
23718;SDS011;43322;52.230;5.702;2022-08-01T09:53:57;3.70;;;1.58;;
23718;SDS011;43322;52.230;5.702;2022-08-01T09:56:25;3.00;;;2.05;;
23718;SDS011;43322;52.230;5.702;2022-08-01T09:58:53;3.72;;;1.83;;
23718;SDS011;43322;52.230;5.702;2022-08-01T10:01:21;5.15;;;2.05;;
23718;SDS011;43322;52.230;5.702;2022-08-01T10:04:03;5.95;;;2.10;;
23718;SDS011;43322;52.230;5.702;2022-08-01T10:06:32;5.03;;;2.25;;
23718;SDS011;43322;52.230;5.702;2022-08-01T10:09:00;8.52;;;2.20;;
23718;SDS011;43322;52.230;5.702;2022-08-01T10:11:27;3.65;;;2.15;;
23718;SDS011;43322;52.230;5.702;2022-08-01T10:13:56;3.17;;;2.28;;
23718;SDS011;43322;52.230;5.702;2022-08-01T10:16:25;3.33;;;1.77;;
23718;SDS011;43322;52.230;5.702;2022-08-01T10:18:53;6.05;;;2.28;;
23718;SDS011;43322;52.230;5.702;2022-08-01T10:21:20;5.22;;;2.10;;
23718;SDS011;43322;52.230;5.702;2022-08-01T10:23:49;1.60;;;1.27;;
23718;SDS011;43322;52.230;5.702;2022-08-01T10:26:17;3.42;;;1.30;;
23718;SDS011;43322;52.230;5.702;2022-08-01T10:28:45;3.08;;;1.70;;
23718;SDS011;43322;52.230;5.702;2022-08-01T10:31:14;3.50;;;1.38;;
23718;SDS011;43322;52.230;5.702;2022-08-01T10:33:44;1.88;;;1.48;;
23718;SDS011;43322;52.230;5.702;2022-08-01T10:36:11;2.55;;;1.55;;
23718;SDS011;43322;52.230;5.702;2022-08-01T10:38:39;5.72;;;1.42;;
23718;SDS011;43322;52.230;5.702;2022-08-01T10:41:08;2.15;;;1.75;;
23718;SDS011;43322;52.230;5.702;2022-08-01T10:43:38;4.28;;;1.38;;
23718;SDS011;43322;52.230;5.702;2022-08-01T10:46:04;2.65;;;1.45;;
23718;SDS011;43322;52.230;5.702;2022-08-01T10:48:34;2.83;;;1.10;;
23718;SDS011;43322;52.230;5.702;2022-08-01T10:51:07;1.08;;;0.95;;
23718;SDS011;43322;52.230;5.702;2022-08-01T10:53:35;1.08;;;0.98;;
23718;SDS011;43322;52.230;5.702;2022-08-01T10:56:02;1.75;;;1.40;;
23718;SDS011;43322;52.230;5.702;2022-08-01T10:58:33;3.58;;;1.67;;
23718;SDS011;43322;52.230;5.702;2022-08-01T11:01:15;4.82;;;1.50;;
23718;SDS011;43322;52.230;5.702;2022-08-01T11:06:40;4.68;;;2.00;;
23718;SDS011;43322;52.230;5.702;2022-08-01T11:09:20;4.82;;;2.00;;
23718;SDS011;43322;52.230;5.702;2022-08-01T11:12:00;2.50;;;1.60;;
23718;SDS011;43322;52.230;5.702;2022-08-01T11:14:31;1.73;;;1.27;;
23718;SDS011;43322;52.230;5.702;2022-08-01T11:20:08;3.85;;;1.55;;
23718;SDS011;43322;52.230;5.702;2022-08-01T11:26:12;2.80;;;1.50;;
23718;SDS011;43322;52.230;5.702;2022-08-01T11:28:44;2.83;;;1.85;;
23718;SDS011;43322;52.230;5.702;2022-08-01T11:31:34;2.67;;;1.35;;
23718;SDS011;43322;52.230;5.702;2022-08-01T11:34:05;3.22;;;1.30;;
23718;SDS011;43322;52.230;5.702;2022-08-01T11:36:32;1.73;;;1.58;;
23718;SDS011;43322;52.230;5.702;2022-08-01T11:39:12;1.80;;;1.42;;
23718;SDS011;43322;52.230;5.702;2022-08-01T11:41:43;3.35;;;1.60;;
23718;SDS011;43322;52.230;5.702;2022-08-01T11:44:13;3.47;;;1.73;;
23718;SDS011;43322;52.230;5.702;2022-08-01T11:46:47;3.33;;;1.67;;
23718;SDS011;43322;52.230;5.702;2022-08-01T11:49:24;4.57;;;1.65;;
23718;SDS011;43322;52.230;5.702;2022-08-01T11:52:01;5.80;;;1.85;;
23718;SDS011;43322;52.230;5.702;2022-08-01T11:54:31;2.28;;;1.00;;
23718;SDS011;43322;52.230;5.702;2022-08-01T11:57:00;2.15;;;1.48;;
23718;SDS011;43322;52.230;5.702;2022-08-01T11:59:28;2.65;;;1.50;;
23718;SDS011;43322;52.230;5.702;2022-08-01T12:02:04;5.30;;;1.60;;
23718;SDS011;43322;52.230;5.702;2022-08-01T12:04:44;2.28;;;1.40;;
23718;SDS011;43322;52.230;5.702;2022-08-01T12:07:12;3.30;;;1.20;;
23718;SDS011;43322;52.230;5.702;2022-08-01T12:09:40;1.65;;;1.20;;
23718;SDS011;43322;52.230;5.702;2022-08-01T12:12:06;4.05;;;1.20;;
23718;SDS011;43322;52.230;5.702;2022-08-01T12:14:34;0.90;;;0.88;;
23718;SDS011;43322;52.230;5.702;2022-08-01T12:17:01;1.75;;;1.10;;
23718;SDS011;43322;52.230;5.702;2022-08-01T12:19:29;2.63;;;1.35;;
23718;SDS011;43322;52.230;5.702;2022-08-01T12:22:09;3.50;;;1.38;;
23718;SDS011;43322;52.230;5.702;2022-08-01T12:24:39;3.22;;;1.40;;
23718;SDS011;43322;52.230;5.702;2022-08-01T12:27:08;2.10;;;1.40;;
23718;SDS011;43322;52.230;5.702;2022-08-01T12:29:38;1.80;;;1.30;;
23718;SDS011;43322;52.230;5.702;2022-08-01T12:32:22;3.83;;;1.35;;
23718;SDS011;43322;52.230;5.702;2022-08-01T12:34:53;2.65;;;1.10;;
23718;SDS011;43322;52.230;5.702;2022-08-01T12:37:21;1.13;;;0.98;;
23718;SDS011;43322;52.230;5.702;2022-08-01T12:39:50;2.58;;;1.50;;
23718;SDS011;43322;52.230;5.702;2022-08-01T12:42:17;2.65;;;1.80;;
23718;SDS011;43322;52.230;5.702;2022-08-01T12:44:44;2.50;;;1.10;;
23718;SDS011;43322;52.230;5.702;2022-08-01T12:47:14;3.92;;;1.30;;
23718;SDS011;43322;52.230;5.702;2022-08-01T12:49:42;1.77;;;1.30;;
23718;SDS011;43322;52.230;5.702;2022-08-01T12:52:11;1.52;;;1.25;;
23718;SDS011;43322;52.230;5.702;2022-08-01T12:57:29;1.77;;;1.20;;
23718;SDS011;43322;52.230;5.702;2022-08-01T13:00:10;1.67;;;1.13;;
23718;SDS011;43322;52.230;5.702;2022-08-01T13:02:41;4.75;;;1.20;;
23718;SDS011;43322;52.230;5.702;2022-08-01T13:05:08;1.63;;;1.08;;
23718;SDS011;43322;52.230;5.702;2022-08-01T13:07:45;1.35;;;1.00;;
23718;SDS011;43322;52.230;5.702;2022-08-01T13:10:14;1.63;;;0.80;;
23718;SDS011;43322;52.230;5.702;2022-08-01T13:12:51;1.45;;;0.98;;
23718;SDS011;43322;52.230;5.702;2022-08-01T13:15:20;1.10;;;0.75;;
23718;SDS011;43322;52.230;5.702;2022-08-01T13:17:50;1.08;;;0.98;;
23718;SDS011;43322;52.230;5.702;2022-08-01T13:20:27;0.90;;;0.68;;
23718;SDS011;43322;52.230;5.702;2022-08-01T13:23:10;2.28;;;1.10;;
23718;SDS011;43322;52.230;5.702;2022-08-01T13:25:49;1.52;;;1.20;;
23718;SDS011;43322;52.230;5.702;2022-08-01T13:28:18;0.90;;;0.80;;
23718;SDS011;43322;52.230;5.702;2022-08-01T13:30:53;1.48;;;1.02;;
23718;SDS011;43322;52.230;5.702;2022-08-01T13:33:21;1.20;;;0.90;;
23718;SDS011;43322;52.230;5.702;2022-08-01T13:35:49;1.27;;;0.77;;
23718;SDS011;43322;52.230;5.702;2022-08-01T13:38:18;1.08;;;0.90;;
23718;SDS011;43322;52.230;5.702;2022-08-01T13:40:45;0.88;;;0.70;;
23718;SDS011;43322;52.230;5.702;2022-08-01T13:43:12;1.30;;;0.80;;
23718;SDS011;43322;52.230;5.702;2022-08-01T13:45:39;1.15;;;0.70;;
23718;SDS011;43322;52.230;5.702;2022-08-01T13:48:06;1.30;;;0.85;;
23718;SDS011;43322;52.230;5.702;2022-08-01T13:50:33;1.25;;;0.90;;
23718;SDS011;43322;52.230;5.702;2022-08-01T13:53:00;1.17;;;0.75;;
23718;SDS011;43322;52.230;5.702;2022-08-01T13:55:28;1.00;;;1.00;;
23718;SDS011;43322;52.230;5.702;2022-08-01T13:57:56;0.82;;;0.75;;
23718;SDS011;43322;52.230;5.702;2022-08-01T14:00:22;2.20;;;1.00;;
23718;SDS011;43322;52.230;5.702;2022-08-01T14:02:49;1.33;;;0.98;;
23718;SDS011;43322;52.230;5.702;2022-08-01T14:05:16;1.80;;;0.80;;
23718;SDS011;43322;52.230;5.702;2022-08-01T14:07:43;1.65;;;0.90;;
23718;SDS011;43322;52.230;5.702;2022-08-01T14:10:10;2.95;;;0.77;;
23718;SDS011;43322;52.230;5.702;2022-08-01T14:12:38;0.70;;;0.70;;
23718;SDS011;43322;52.230;5.702;2022-08-01T14:15:06;0.82;;;0.65;;
23718;SDS011;43322;52.230;5.702;2022-08-01T14:17:33;0.70;;;0.70;;
23718;SDS011;43322;52.230;5.702;2022-08-01T14:20:00;0.70;;;0.60;;
23718;SDS011;43322;52.230;5.702;2022-08-01T14:22:27;1.48;;;0.93;;
23718;SDS011;43322;52.230;5.702;2022-08-01T14:24:54;2.08;;;0.70;;
23718;SDS011;43322;52.230;5.702;2022-08-01T14:27:21;0.63;;;0.60;;
23718;SDS011;43322;52.230;5.702;2022-08-01T14:29:49;1.60;;;0.77;;
23718;SDS011;43322;52.230;5.702;2022-08-01T14:32:16;0.82;;;0.60;;
23718;SDS011;43322;52.230;5.702;2022-08-01T14:34:42;1.13;;;0.70;;
23718;SDS011;43322;52.230;5.702;2022-08-01T14:37:10;1.40;;;0.90;;
23718;SDS011;43322;52.230;5.702;2022-08-01T14:39:37;0.98;;;0.90;;
23718;SDS011;43322;52.230;5.702;2022-08-01T14:42:04;1.80;;;0.75;;
23718;SDS011;43322;52.230;5.702;2022-08-01T14:44:31;0.93;;;0.70;;
23718;SDS011;43322;52.230;5.702;2022-08-01T14:46:59;2.35;;;0.85;;
23718;SDS011;43322;52.230;5.702;2022-08-01T14:49:26;1.63;;;0.90;;
23718;SDS011;43322;52.230;5.702;2022-08-01T14:51:53;2.20;;;0.98;;
23718;SDS011;43322;52.230;5.702;2022-08-01T14:54:20;0.80;;;0.80;;
23718;SDS011;43322;52.230;5.702;2022-08-01T14:56:47;1.77;;;0.77;;
23718;SDS011;43322;52.230;5.702;2022-08-01T14:59:14;2.08;;;0.80;;
23718;SDS011;43322;52.230;5.702;2022-08-01T15:01:41;2.10;;;0.82;;
23718;SDS011;43322;52.230;5.702;2022-08-01T15:04:09;1.05;;;0.80;;
23718;SDS011;43322;52.230;5.702;2022-08-01T15:06:36;1.58;;;0.80;;
23718;SDS011;43322;52.230;5.702;2022-08-01T15:09:03;1.27;;;0.85;;
23718;SDS011;43322;52.230;5.702;2022-08-01T15:11:30;1.17;;;0.88;;